Gonohe, Japan

8:38 AM JST on May 28, 2017 (GMT +0900)
Hachinohe Shi | | Change Station

Elev 0 ft 40.52 °N, 141.47 °E | Updated 5 minutes ago

Partly Cloudy
Partly Cloudy
64.4 °F
Feels Like 64.4 °F
N
5.0
Wind Variable Wind from SW
Gusts 11.8 mph

Today
High -- | Low -- °F
--% Chance of Precip.
Yesterday
High -- | Low -- °F
Precip. -- in
Pressure 29.83 in
Visibility 6.2 miles
Clouds Few 1500 ft
Scattered Clouds 3000 ft
Mostly Cloudy 5000 ft
Dew Point 56 °F
Humidity 73%
Rainfall 0.00 in
Snow Depth Not available.
4:08 AM 6:55 PM
Waxing Crescent, 7% visible
METAR RJSA 272200Z 26007KT 9999 -SHRA FEW015 SCT030 BKN050 13/11 Q1010
Pressure 29.83 in
Visibility 6.2 miles
Clouds Few 1500 ft
Scattered Clouds 3000 ft
Mostly Cloudy 5000 ft
Dew Point 56 °F
Humidity 73%
Rainfall 0.00 in
Snow Depth Not available.
4:08 AM 6:55 PM
Waxing Crescent, 7% visible
METAR RJSA 272200Z 26007KT 9999 -SHRA FEW015 SCT030 BKN050 13/11 Q1010

Get Severe Weather Alerts

Thanks for signing up!

Be on the lookout for a verification email in your inbox.

You'll start receiving the daily forecast at 6 AM.

×

10-Day Weather Forecast

No radar image for this location.
×

Almanac

Astronomy

May. 28, 2017 Rise Set
Actual Time
Civil Twilight
Nautical Twilight
Astronomical Twilight
Moon
Length of Visible Light
Length of Day
Tomorrow will be .
, % of the Moon is Illuminated

Today's Extremes

Country Highs Country Lows

Community

WunderPhotos

Category 6

Welcome to Category 6. This is the collective home for Weather Underground's featured writeups by Dr. Jeff Masters (right), Bob Henson (left), Chris Burt, and other regular contributors.

Nearby

Air Quality

  Air Quality AQ Index Pollutant
Not available.

Snow Depth

Station Depth Elevation

Earthquake Activity

City Distance Mag. Time & Date
Minimum magnitude displayed is 2.5.

Coastal Water Temperatures

Place Temperature

Stations

Nearby Weather Stations

Station Location Temp. Windchill Dew Point Humidity Wind Precip. Elev Updated Type